createdAt,value
2018-03-07T00:01:42.620Z,52.50
2018-03-07T00:04:11.056Z,56.33
2018-03-07T00:06:39.533Z,55.03
2018-03-07T00:09:07.933Z,56.90
2018-03-07T00:11:36.356Z,56.43
2018-03-07T00:14:04.776Z,53.70
2018-03-07T00:16:33.183Z,49.20
2018-03-07T00:19:01.941Z,48.10
2018-03-07T00:21:30.335Z,47.93
2018-03-07T00:23:58.749Z,49.57
2018-03-07T00:26:27.155Z,50.43
2018-03-07T00:28:55.546Z,50.43
2018-03-07T00:31:24.022Z,50.30
2018-03-07T00:33:52.425Z,50.77
2018-03-07T00:36:20.839Z,51.47
2018-03-07T00:38:49.248Z,53.77
2018-03-07T00:41:17.836Z,59.53
2018-03-07T00:43:46.261Z,52.97
2018-03-07T00:46:14.683Z,55.00
2018-03-07T00:48:43.084Z,59.80
2018-03-07T00:51:11.584Z,66.47
2018-03-07T00:53:40.062Z,58.47
2018-03-07T00:56:08.481Z,61.20
2018-03-07T00:58:36.888Z,59.57
2018-03-07T01:01:05.299Z,64.63
2018-03-07T01:03:33.701Z,63.40
2018-03-07T01:06:02.280Z,63.10
2018-03-07T01:08:30.692Z,63.20
2018-03-07T01:10:59.207Z,65.10
2018-03-07T01:13:27.625Z,62.70
2018-03-07T01:15:56.172Z,61.30
2018-03-07T01:18:24.592Z,60.23
2018-03-07T01:20:53.104Z,57.00
2018-03-07T01:23:21.514Z,59.87
2018-03-07T01:25:50.048Z,62.73
2018-03-07T01:28:18.459Z,59.43
2018-03-07T01:30:47.103Z,59.47
2018-03-07T01:33:15.516Z,59.97
2018-03-07T01:35:43.939Z,59.67
2018-03-07T01:38:12.349Z,57.17
2018-03-07T01:40:40.756Z,62.13
2018-03-07T01:43:09.241Z,60.73
2018-03-07T01:45:37.633Z,60.23
2018-03-07T01:48:06.043Z,61.00
2018-03-07T01:50:34.545Z,59.67
2018-03-07T01:53:02.940Z,62.20
2018-03-07T01:55:31.464Z,63.30
2018-03-07T01:57:59.883Z,66.27
2018-03-07T02:00:28.307Z,71.20
2018-03-07T02:02:56.720Z,73.17
2018-03-07T02:05:25.119Z,73.10
2018-03-07T02:07:53.635Z,80.43
2018-03-07T02:12:55.712Z,82.20
2018-03-07T02:15:24.120Z,89.77
2018-03-07T02:17:52.527Z,83.67
2018-03-07T02:20:20.943Z,81.37
2018-03-07T02:22:49.348Z,85.20
2018-03-07T02:25:17.796Z,84.70
2018-03-07T02:27:47.224Z,84.67
2018-03-07T02:30:15.644Z,83.70
2018-03-07T02:32:44.091Z,87.63
2018-03-07T02:35:12.501Z,89.70
2018-03-07T02:37:40.975Z,84.00
2018-03-07T02:40:09.403Z,82.33
2018-03-07T02:42:37.816Z,82.67
2018-03-07T02:45:06.224Z,83.20
2018-03-07T02:47:34.635Z,82.27
2018-03-07T02:50:03.182Z,79.00
2018-03-07T02:52:31.604Z,77.00
2018-03-07T02:55:00.025Z,81.03
2018-03-07T02:57:28.444Z,77.90
2018-03-07T02:59:56.902Z,77.37
2018-03-07T03:02:25.378Z,77.80
2018-03-07T03:04:53.855Z,79.30
2018-03-07T03:07:22.272Z,77.60
2018-03-07T03:09:50.696Z,77.50
2018-03-07T03:12:19.090Z,77.53
2018-03-07T03:14:47.560Z,85.20
2018-03-07T03:17:15.988Z,78.97
2018-03-07T03:19:44.468Z,83.90
2018-03-07T03:22:12.882Z,82.67
2018-03-07T03:24:41.295Z,81.10
2018-03-07T03:27:09.770Z,83.80
2018-03-07T03:29:38.183Z,82.23
2018-03-07T03:32:06.596Z,86.87
2018-03-07T03:34:35.007Z,81.97
2018-03-07T03:37:03.415Z,82.87
2018-03-07T03:39:31.887Z,81.97
2018-03-07T03:42:00.286Z,80.20
2018-03-07T03:44:28.738Z,82.47
2018-03-07T03:46:57.143Z,89.03
2018-03-07T03:49:25.580Z,88.13
2018-03-07T03:51:54.001Z,81.70
2018-03-07T03:54:22.404Z,82.90
2018-03-07T03:56:51.204Z,81.17
2018-03-07T03:59:19.615Z,83.67
2018-03-07T04:01:48.110Z,80.97
2018-03-07T04:04:16.517Z,83.27
2018-03-07T04:06:44.919Z,79.10
2018-03-07T04:09:13.315Z,77.90
2018-03-07T04:11:41.717Z,75.53
2018-03-07T04:14:10.156Z,80.77
2018-03-07T04:16:38.564Z,78.37
2018-03-07T04:19:06.954Z,80.60
2018-03-07T04:21:35.381Z,79.80
2018-03-07T04:24:03.766Z,79.90
2018-03-07T04:26:32.199Z,81.90
2018-03-07T04:29:00.591Z,81.57
2018-03-07T04:31:29.046Z,82.30
2018-03-07T04:33:57.535Z,76.27
2018-03-07T04:36:25.958Z,74.97
2018-03-07T04:38:54.347Z,77.63
2018-03-07T04:41:22.741Z,71.33
2018-03-07T04:43:51.135Z,68.30
2018-03-07T04:46:19.675Z,69.13
2018-03-07T04:48:48.092Z,64.60
2018-03-07T04:51:16.825Z,59.70
2018-03-07T04:53:45.234Z,60.07
2018-03-07T04:56:13.618Z,57.60
2018-03-07T04:58:42.069Z,53.50
2018-03-07T05:01:10.547Z,52.80
2018-03-07T05:03:38.940Z,54.00
2018-03-07T05:06:07.361Z,54.20
2018-03-07T05:08:35.768Z,52.37
2018-03-07T05:11:04.232Z,53.63
2018-03-07T05:13:32.748Z,51.40
2018-03-07T05:16:01.157Z,52.47
2018-03-07T05:18:30.284Z,50.40
2018-03-07T05:20:58.823Z,49.40
2018-03-07T05:23:27.227Z,49.30
2018-03-07T05:25:55.638Z,52.77
2018-03-07T05:28:24.036Z,53.70
2018-03-07T05:30:52.512Z,54.57
2018-03-07T05:33:21.056Z,54.13
2018-03-07T05:35:49.459Z,50.37
2018-03-07T05:38:17.868Z,51.77
2018-03-07T05:40:46.251Z,49.50
2018-03-07T05:43:14.663Z,54.97
2018-03-07T05:45:43.128Z,51.30
2018-03-07T05:48:11.529Z,49.47
2018-03-07T05:50:39.948Z,47.20
2018-03-07T05:53:08.330Z,46.17
2018-03-07T05:55:36.702Z,52.43
2018-03-07T05:58:05.156Z,51.03
2018-03-07T06:00:33.646Z,54.80
2018-03-07T06:03:02.059Z,50.93
2018-03-07T06:05:30.611Z,51.50
2018-03-07T06:07:59.016Z,53.10
2018-03-07T06:10:27.464Z,54.20
2018-03-07T06:12:55.969Z,53.47
2018-03-07T06:15:24.391Z,52.40
2018-03-07T06:17:52.825Z,54.73
2018-03-07T06:20:21.232Z,59.50
2018-03-07T06:22:50.022Z,59.10
2018-03-07T06:25:18.385Z,61.47
2018-03-07T06:27:46.859Z,59.00
2018-03-07T06:30:15.274Z,59.70
2018-03-07T06:32:43.680Z,58.57
2018-03-07T06:35:12.142Z,62.50
2018-03-07T06:37:40.544Z,62.77
2018-03-07T06:40:08.960Z,63.47
2018-03-07T06:42:37.361Z,64.23
2018-03-07T06:45:05.811Z,67.70
2018-03-07T06:47:34.227Z,68.50
2018-03-07T06:50:02.635Z,70.77
2018-03-07T06:52:31.045Z,72.77
2018-03-07T06:54:59.501Z,74.97
2018-03-07T06:57:28.026Z,73.50
2018-03-07T06:59:59.182Z,76.17
2018-03-07T07:02:27.644Z,72.37
2018-03-07T07:04:56.118Z,71.30
2018-03-07T07:07:25.581Z,68.57
2018-03-07T07:09:54.053Z,69.37
2018-03-07T07:12:22.458Z,68.63
2018-03-07T07:14:50.976Z,66.53
2018-03-07T07:17:22.573Z,64.17
2018-03-07T07:19:51.083Z,65.30
2018-03-07T07:22:19.614Z,64.27
2018-03-07T07:24:48.162Z,65.70
2018-03-07T07:27:16.548Z,64.73
2018-03-07T07:29:45.018Z,64.10
2018-03-07T07:32:13.435Z,65.80
2018-03-07T07:34:41.914Z,63.30
2018-03-07T07:37:10.322Z,58.00
2018-03-07T07:39:38.725Z,60.67
2018-03-07T07:42:07.118Z,60.30
2018-03-07T07:44:35.516Z,54.67
2018-03-07T07:47:03.918Z,56.17
2018-03-07T07:49:32.297Z,54.90
2018-03-07T07:52:00.877Z,55.47
2018-03-07T07:54:29.332Z,56.27
2018-03-07T07:56:57.702Z,51.80
2018-03-07T07:59:26.122Z,54.90
2018-03-07T08:01:54.612Z,51.23
2018-03-07T08:04:22.988Z,50.50
2018-03-07T08:06:51.357Z,51.63
2018-03-07T08:09:19.766Z,48.87
2018-03-07T08:11:48.159Z,47.27
2018-03-07T08:14:16.595Z,49.50
2018-03-07T08:16:45.003Z,48.40
2018-03-07T08:19:13.550Z,44.93
2018-03-07T08:21:42.024Z,43.80
2018-03-07T08:24:10.431Z,43.80
2018-03-07T08:26:38.831Z,40.50
2018-03-07T08:29:07.236Z,40.17
2018-03-07T08:31:35.688Z,40.13
2018-03-07T08:34:04.084Z,40.30
2018-03-07T08:36:32.507Z,40.40
2018-03-07T08:39:00.912Z,40.53
2018-03-07T08:41:29.321Z,38.27
2018-03-07T08:43:57.721Z,36.80
2018-03-07T08:46:26.201Z,38.80
2018-03-07T08:48:54.665Z,38.00
2018-03-07T08:51:23.088Z,37.53
2018-03-07T08:53:51.494Z,38.13
2018-03-07T08:56:19.862Z,38.40
2018-03-07T08:58:48.277Z,36.57
2018-03-07T09:01:16.875Z,35.47
2018-03-07T09:03:45.979Z,36.27
2018-03-07T09:06:14.405Z,35.43
2018-03-07T09:08:42.814Z,36.07
2018-03-07T09:11:11.219Z,32.53
2018-03-07T09:13:39.667Z,32.90
2018-03-07T09:16:08.096Z,31.80
2018-03-07T09:18:36.578Z,33.93
2018-03-07T09:21:04.959Z,35.07
2018-03-07T09:23:33.350Z,31.20
2018-03-07T09:26:01.840Z,34.23
2018-03-07T09:28:30.236Z,35.73
2018-03-07T09:30:58.676Z,34.90
2018-03-07T09:33:27.128Z,34.00
2018-03-07T09:35:55.544Z,33.23
2018-03-07T09:38:24.040Z,34.30
2018-03-07T09:40:52.451Z,33.73
2018-03-07T09:43:20.928Z,33.77
2018-03-07T09:45:49.351Z,32.33
2018-03-07T09:48:17.748Z,34.93
2018-03-07T09:50:46.155Z,33.90
2018-03-07T09:53:14.556Z,33.03
2018-03-07T09:55:43.389Z,29.40
2018-03-07T09:58:11.804Z,32.70
2018-03-07T10:00:40.248Z,30.23
2018-03-07T10:03:08.648Z,32.60
2018-03-07T10:05:37.208Z,33.73
2018-03-07T10:08:05.617Z,34.57
2018-03-07T10:10:33.996Z,35.50
2018-03-07T10:13:02.386Z,34.33
2018-03-07T10:15:30.846Z,36.47
2018-03-07T10:17:59.319Z,36.60
2018-03-07T10:20:27.764Z,37.10
2018-03-07T10:22:56.347Z,37.57
2018-03-07T10:25:24.722Z,37.07
2018-03-07T10:27:53.209Z,35.73
2018-03-07T10:30:21.612Z,31.90
2018-03-07T10:32:50.010Z,28.87
2018-03-07T10:35:18.415Z,28.50
2018-03-07T10:37:46.954Z,31.20
2018-03-07T10:40:15.398Z,32.67
2018-03-07T10:42:43.791Z,26.53
2018-03-07T10:45:12.264Z,28.30
2018-03-07T10:47:40.660Z,24.03
2018-03-07T10:50:09.048Z,24.17
2018-03-07T10:52:37.456Z,20.73
2018-03-07T10:55:06.002Z,21.50
2018-03-07T10:57:34.440Z,21.17
2018-03-07T11:00:02.856Z,20.23
2018-03-07T11:02:31.365Z,22.07
2018-03-07T11:04:59.805Z,21.33
2018-03-07T11:07:28.338Z,21.97
2018-03-07T11:09:56.706Z,23.50
2018-03-07T11:12:25.078Z,21.90
2018-03-07T11:14:53.587Z,20.40
2018-03-07T11:17:21.992Z,21.47
2018-03-07T11:19:50.412Z,19.20
2018-03-07T11:22:18.809Z,20.17
2018-03-07T11:24:47.232Z,19.20
2018-03-07T11:27:15.696Z,19.20
2018-03-07T11:29:44.100Z,18.00
2018-03-07T11:32:12.531Z,16.83
2018-03-07T11:34:41.006Z,15.70
2018-03-07T11:37:09.403Z,16.00
2018-03-07T11:39:37.873Z,16.97
2018-03-07T11:42:06.271Z,15.10
2018-03-07T11:44:34.771Z,15.50
2018-03-07T11:47:03.253Z,17.57
2018-03-07T11:49:31.643Z,17.03
2018-03-07T11:52:00.084Z,16.40
2018-03-07T11:54:28.492Z,17.30
2018-03-07T11:56:57.044Z,17.17
2018-03-07T11:59:25.432Z,17.40
2018-03-07T12:01:53.931Z,18.97
2018-03-07T12:04:22.346Z,17.00
2018-03-07T12:06:50.737Z,17.87
2018-03-07T12:09:19.152Z,17.40
2018-03-07T12:11:47.589Z,16.87
2018-03-07T12:14:16.122Z,16.43
2018-03-07T12:16:44.518Z,14.27
2018-03-07T12:19:12.938Z,14.23
2018-03-07T12:21:41.371Z,14.83
2018-03-07T12:24:09.894Z,12.97
2018-03-07T12:26:38.343Z,12.80
2018-03-07T12:29:06.720Z,13.70
2018-03-07T12:31:35.095Z,13.07
2018-03-07T12:34:03.473Z,13.57
2018-03-07T12:36:31.867Z,13.17
2018-03-07T12:39:00.341Z,13.20
2018-03-07T12:41:28.861Z,13.70
2018-03-07T12:43:57.297Z,13.70
2018-03-07T12:46:25.743Z,13.60
2018-03-07T12:48:54.240Z,14.60
2018-03-07T12:51:22.736Z,14.10
2018-03-07T12:53:51.153Z,14.90
2018-03-07T12:56:19.729Z,15.43
2018-03-07T12:58:48.208Z,16.10
2018-03-07T13:01:16.607Z,14.97
2018-03-07T13:03:44.994Z,16.43
2018-03-07T13:06:13.392Z,15.33
2018-03-07T13:08:42.025Z,15.90
2018-03-07T13:11:10.431Z,15.03
2018-03-07T13:13:38.816Z,14.77
2018-03-07T13:16:07.209Z,14.70
2018-03-07T13:18:35.626Z,13.17
2018-03-07T13:21:04.080Z,12.90
2018-03-07T13:23:32.497Z,13.30
2018-03-07T13:26:00.943Z,13.27
2018-03-07T13:28:29.356Z,13.03
2018-03-07T13:30:57.768Z,13.80
2018-03-07T13:33:26.188Z,13.80
2018-03-07T13:35:54.608Z,13.37
2018-03-07T13:38:23.083Z,12.50
2018-03-07T13:40:51.506Z,10.30
2018-03-07T13:43:19.901Z,9.07
2018-03-07T13:45:48.296Z,9.07
2018-03-07T13:48:16.659Z,6.80
2018-03-07T13:50:45.088Z,5.47
2018-03-07T13:53:13.452Z,5.33
2018-03-07T13:55:41.828Z,4.97
2018-03-07T13:58:10.210Z,3.90
2018-03-07T14:00:38.633Z,5.03
2018-03-07T14:03:07.043Z,3.97
2018-03-07T14:05:35.447Z,4.90
2018-03-07T14:08:03.846Z,5.20
2018-03-07T14:10:32.297Z,5.13
2018-03-07T14:13:00.716Z,5.00
2018-03-07T14:15:29.158Z,5.30
2018-03-07T14:17:57.528Z,5.00
2018-03-07T14:20:25.926Z,5.50
2018-03-07T14:22:54.276Z,5.77
2018-03-07T14:25:22.643Z,5.07
2018-03-07T14:27:51.308Z,4.23
2018-03-07T14:30:19.670Z,4.90
2018-03-07T14:32:48.035Z,4.80
2018-03-07T14:35:16.462Z,4.73
2018-03-07T14:37:44.885Z,4.87
2018-03-07T14:40:13.382Z,4.10
2018-03-07T14:42:41.749Z,4.90
2018-03-07T14:45:10.123Z,4.60
2018-03-07T14:47:38.507Z,4.70
2018-03-07T14:50:08.417Z,4.67
2018-03-07T14:52:37.027Z,6.27
2018-03-07T14:55:05.698Z,5.70
2018-03-07T14:57:34.090Z,4.80
2018-03-07T15:00:02.566Z,5.10
2018-03-07T15:02:30.990Z,5.10
2018-03-07T15:05:00.610Z,5.53
2018-03-07T15:07:30.796Z,6.67
2018-03-07T15:09:59.399Z,5.70
2018-03-07T15:12:28.055Z,8.57
2018-03-07T15:14:56.457Z,6.10
2018-03-07T15:17:24.941Z,7.17
2018-03-07T15:19:53.381Z,5.70
2018-03-07T15:22:21.780Z,5.60
2018-03-07T15:24:50.196Z,5.93
2018-03-07T15:27:18.773Z,7.60
2018-03-07T15:29:47.256Z,24.03
2018-03-07T15:32:16.791Z,4.60
2018-03-07T15:34:45.573Z,6.87
2018-03-07T15:37:13.991Z,4.20
2018-03-07T15:39:42.441Z,3.70
2018-03-07T15:42:10.896Z,4.00
2018-03-07T15:44:39.481Z,3.83
2018-03-07T15:47:07.939Z,3.93
2018-03-07T15:49:36.387Z,3.67
2018-03-07T15:52:04.756Z,3.43
2018-03-07T15:54:33.359Z,3.30
2018-03-07T15:57:01.747Z,3.07
2018-03-07T15:59:30.200Z,3.50
2018-03-07T16:01:58.695Z,3.80
2018-03-07T16:04:27.127Z,3.13
2018-03-07T16:06:55.667Z,3.13
2018-03-07T16:09:24.173Z,3.40
2018-03-07T16:11:52.604Z,3.30
2018-03-07T16:14:21.182Z,3.23
2018-03-07T16:16:49.582Z,2.93
2018-03-07T16:19:18.070Z,3.80
2018-03-07T16:21:46.442Z,3.40
2018-03-07T16:24:14.826Z,3.80
2018-03-07T16:26:43.253Z,3.40
2018-03-07T16:29:11.705Z,3.07
2018-03-07T16:31:40.136Z,3.40
2018-03-07T16:34:08.748Z,3.60
2018-03-07T16:36:37.420Z,3.60
2018-03-07T16:39:05.887Z,3.20
2018-03-07T16:41:34.484Z,3.00
2018-03-07T16:44:03.496Z,3.33
2018-03-07T16:46:31.854Z,3.10
2018-03-07T16:49:00.384Z,2.77
2018-03-07T16:51:28.775Z,2.93
2018-03-07T16:53:57.568Z,2.50
2018-03-07T16:56:26.276Z,2.70
2018-03-07T16:58:54.692Z,2.50
2018-03-07T17:01:23.096Z,2.27
2018-03-07T17:03:51.480Z,2.70
2018-03-07T17:06:19.967Z,2.50
2018-03-07T17:08:50.760Z,2.77
2018-03-07T17:11:20.226Z,2.30
2018-03-07T17:13:48.746Z,2.40
2018-03-07T17:16:17.158Z,3.07
2018-03-07T17:18:45.543Z,2.80
2018-03-07T17:21:13.911Z,3.50
2018-03-07T17:23:42.270Z,2.80
2018-03-07T17:26:10.749Z,2.67
2018-03-07T17:31:12.840Z,3.07
2018-03-07T17:33:41.219Z,3.10
2018-03-07T17:36:09.584Z,3.33
2018-03-07T17:38:38.000Z,3.50
2018-03-07T17:41:06.445Z,3.83
2018-03-07T17:43:34.923Z,4.43
2018-03-07T17:46:03.313Z,4.23
2018-03-07T17:48:31.690Z,4.30
2018-03-07T17:51:00.094Z,3.87
2018-03-07T17:53:28.490Z,3.80
2018-03-07T17:55:56.962Z,3.50
2018-03-07T17:58:25.352Z,4.53
2018-03-07T18:00:53.791Z,4.20
2018-03-07T18:03:22.180Z,5.47
2018-03-07T18:05:50.575Z,4.30
2018-03-07T18:08:18.972Z,4.50
2018-03-07T18:10:47.343Z,4.10
2018-03-07T18:13:15.792Z,4.70
2018-03-07T18:15:44.189Z,5.00
2018-03-07T18:18:12.540Z,4.37
2018-03-07T18:20:40.927Z,4.80
2018-03-07T18:23:09.336Z,4.67
2018-03-07T18:25:37.965Z,5.40
2018-03-07T18:28:06.473Z,5.20
2018-03-07T18:30:34.883Z,4.90
2018-03-07T18:33:03.280Z,4.87
2018-03-07T18:35:31.670Z,5.63
2018-03-07T18:38:00.302Z,5.73
2018-03-07T18:40:29.394Z,6.30
2018-03-07T18:42:57.771Z,5.57
2018-03-07T18:45:26.216Z,5.90
2018-03-07T18:47:54.574Z,6.57
2018-03-07T18:50:22.966Z,6.40
2018-03-07T18:52:51.335Z,6.03
2018-03-07T18:55:19.821Z,8.77
2018-03-07T18:57:48.175Z,7.13
2018-03-07T19:00:16.547Z,7.50
2018-03-07T19:02:44.967Z,7.10
2018-03-07T19:05:13.337Z,8.17
2018-03-07T19:07:41.984Z,8.77
2018-03-07T19:10:10.431Z,9.57
2018-03-07T19:12:38.928Z,8.90
2018-03-07T19:15:07.370Z,8.30
2018-03-07T19:17:35.790Z,8.00
2018-03-07T19:20:04.730Z,9.13
2018-03-07T19:22:33.109Z,9.30
2018-03-07T19:25:01.545Z,9.17
2018-03-07T19:27:29.942Z,10.40
2018-03-07T19:29:58.351Z,8.30
2018-03-07T19:32:26.829Z,9.43
2018-03-07T19:34:55.235Z,8.67
2018-03-07T19:37:23.611Z,9.40
2018-03-07T19:39:51.984Z,10.00
2018-03-07T19:42:20.407Z,8.93
2018-03-07T19:44:48.807Z,9.13
2018-03-07T19:47:17.208Z,10.20
2018-03-07T19:49:45.676Z,8.73
2018-03-07T19:52:14.108Z,9.20
2018-03-07T19:54:42.665Z,8.47
2018-03-07T19:57:11.061Z,10.90
2018-03-07T19:59:39.572Z,8.63
2018-03-07T20:02:08.000Z,8.90
2018-03-07T20:04:36.429Z,9.67
2018-03-07T20:07:04.865Z,8.40
2018-03-07T20:09:33.251Z,8.70
2018-03-07T20:12:01.683Z,9.07
2018-03-07T20:14:30.250Z,9.30
2018-03-07T20:16:58.719Z,9.17
2018-03-07T20:19:27.159Z,10.07
2018-03-07T20:21:55.671Z,10.10
2018-03-07T20:24:24.158Z,15.33
2018-03-07T20:26:52.559Z,11.57
2018-03-07T20:29:21.108Z,10.10
2018-03-07T20:31:49.559Z,10.40
2018-03-07T20:34:17.992Z,9.97
2018-03-07T20:36:46.434Z,9.50
2018-03-07T20:39:14.852Z,9.70
2018-03-07T20:41:43.352Z,10.30
2018-03-07T20:44:11.761Z,10.40
2018-03-07T20:46:40.227Z,10.90
2018-03-07T20:49:08.595Z,9.00
2018-03-07T20:51:36.990Z,13.07
2018-03-07T20:54:05.377Z,9.77
2018-03-07T20:56:33.787Z,8.77
2018-03-07T20:59:02.329Z,9.07
2018-03-07T21:01:30.732Z,12.03
2018-03-07T21:03:59.654Z,9.07
2018-03-07T21:06:28.020Z,9.60
2018-03-07T21:08:56.440Z,10.60
2018-03-07T21:11:24.986Z,8.80
2018-03-07T21:13:53.421Z,8.27
2018-03-07T21:16:21.888Z,11.13
2018-03-07T21:18:50.309Z,9.20
2018-03-07T21:21:18.689Z,8.80
2018-03-07T21:23:47.096Z,8.53
2018-03-07T21:26:15.499Z,7.67
2018-03-07T21:28:43.929Z,8.23
2018-03-07T21:31:12.335Z,8.77
2018-03-07T21:33:41.123Z,6.70
2018-03-07T21:36:09.874Z,8.17
2018-03-07T21:38:38.430Z,7.80
2018-03-07T21:41:06.868Z,8.20
2018-03-07T21:43:35.258Z,7.50
2018-03-07T21:46:03.636Z,6.73
2018-03-07T21:48:32.207Z,8.10
2018-03-07T21:51:00.657Z,8.03
2018-03-07T21:53:29.075Z,7.90
2018-03-07T21:55:57.503Z,8.00
2018-03-07T21:58:25.892Z,7.97
2018-03-07T22:00:54.519Z,8.10
2018-03-07T22:03:22.921Z,8.17
2018-03-07T22:05:51.298Z,8.70
2018-03-07T22:08:19.701Z,8.43
2018-03-07T22:10:48.110Z,8.27
2018-03-07T22:13:16.957Z,7.00
2018-03-07T22:15:45.394Z,6.27
2018-03-07T22:18:13.861Z,6.53
2018-03-07T22:20:42.320Z,6.30
2018-03-07T22:23:10.705Z,6.37
2018-03-07T22:25:39.124Z,5.30
2018-03-07T22:28:07.516Z,5.13
2018-03-07T22:30:35.879Z,5.03
2018-03-07T22:33:04.254Z,4.90
2018-03-07T22:35:32.639Z,3.17
2018-03-07T22:38:03.697Z,2.93
2018-03-07T22:40:39.717Z,3.10
2018-03-07T22:43:09.464Z,2.90
2018-03-07T22:45:37.850Z,2.90
2018-03-07T22:48:06.256Z,2.78
2018-03-07T22:50:34.648Z,3.20
2018-03-07T22:53:03.018Z,2.13
2018-03-07T22:55:31.409Z,2.40
2018-03-07T22:57:59.808Z,2.33
2018-03-07T23:00:33.840Z,2.60
2018-03-07T23:03:02.232Z,2.42
2018-03-07T23:05:30.636Z,2.12
2018-03-07T23:07:59.027Z,2.22
2018-03-07T23:10:27.408Z,2.33
2018-03-07T23:12:56.047Z,2.60
2018-03-07T23:15:24.705Z,2.35
2018-03-07T23:17:53.077Z,2.70
2018-03-07T23:20:21.481Z,2.80
2018-03-07T23:22:50.056Z,2.83
2018-03-07T23:25:18.663Z,3.65
2018-03-07T23:27:47.051Z,5.47
2018-03-07T23:30:15.463Z,5.65
2018-03-07T23:32:43.846Z,6.82
2018-03-07T23:35:12.230Z,7.20
2018-03-07T23:37:40.625Z,7.45
2018-03-07T23:40:09.021Z,7.85
2018-03-07T23:42:37.575Z,8.80
2018-03-07T23:45:06.288Z,9.10
2018-03-07T23:47:34.687Z,7.22
2018-03-07T23:50:03.071Z,6.82
2018-03-07T23:52:31.467Z,7.75
2018-03-07T23:54:59.972Z,6.93
2018-03-07T23:57:28.374Z,6.50
2018-03-07T23:59:56.772Z,7.60
